Time;durP1;ratioP1;P1;durP2;ratioP2;P2;SDS_P1;SDS_P2;PMS_P1;PMS_P2;Temp;Humidity;BMP_temperature;BMP_pressure;BME280_temperature;BME280_humidity;BME280_pressure;Samples;Min_cycle;Max_cycle;Signal;HPM_P1;HPM_P2
2023/10/25 00:00:09;;;;;;;7.80;3.10;;;9.20;99.90;;;;;;5026816;28;20408;-66
2023/10/25 00:02:35;;;;;;;9.98;2.85;;;9.20;99.90;;;;;;5028200;28;20052;-65
2023/10/25 00:05:01;;;;;;;7.82;3.05;;;9.10;99.90;;;;;;5034335;28;20072;-65
2023/10/25 00:07:26;;;;;;;4.70;2.33;;;9.10;99.90;;;;;;5037438;28;20080;-65
2023/10/25 00:09:52;;;;;;;5.78;2.78;;;9.20;99.90;;;;;;5044547;28;20480;-65
2023/10/25 00:12:18;;;;;;;4.82;2.53;;;9.10;99.90;;;;;;5024409;28;20120;-65
2023/10/25 00:14:44;;;;;;;6.68;3.53;;;9.20;99.90;;;;;;5049250;28;20052;-65
2023/10/25 00:17:09;;;;;;;4.63;2.63;;;9.10;99.90;;;;;;5050178;28;20040;-65
2023/10/25 00:19:35;;;;;;;5.20;2.78;;;9.10;99.90;;;;;;5017886;28;20041;-65
2023/10/25 00:22:01;;;;;;;3.03;2.72;;;9.10;99.90;;;;;;5050707;28;20496;-65
2023/10/25 00:24:27;;;;;;;4.18;2.70;;;9.10;99.90;;;;;;5019565;28;20056;-65
2023/10/25 00:26:53;;;;;;;4.68;2.47;;;9.00;99.90;;;;;;5050588;28;20041;-65
2023/10/25 00:29:19;;;;;;;10.45;2.92;;;9.00;99.90;;;;;;5030963;28;20092;-65
2023/10/25 00:31:45;;;;;;;3.42;2.58;;;9.00;99.90;;;;;;5046652;28;20144;-65
2023/10/25 00:34:11;;;;;;;12.57;2.58;;;9.00;99.90;;;;;;5032610;28;20045;-65
2023/10/25 00:36:36;;;;;;;8.23;3.28;;;9.00;99.90;;;;;;5030866;28;20049;-65
2023/10/25 00:39:02;;;;;;;5.28;2.47;;;8.90;99.90;;;;;;5045843;28;20364;-65
2023/10/25 00:41:28;;;;;;;3.67;2.80;;;9.00;99.90;;;;;;5048659;28;20333;-64
2023/10/25 00:43:54;;;;;;;4.40;2.75;;;9.00;99.90;;;;;;5037216;28;20525;-65
2023/10/25 00:46:24;;;;;;;12.50;2.92;;;9.00;99.90;;;;;;5042614;28;20073;-65
2023/10/25 00:48:55;;;;;;;4.53;2.20;;;8.90;99.90;;;;;;5050099;28;20169;-64
2023/10/25 00:51:23;;;;;;;4.82;2.50;;;8.80;99.90;;;;;;5031364;28;20045;-64
2023/10/25 00:53:54;;;;;;;3.92;2.38;;;8.90;99.90;;;;;;5031420;28;20506;-65
2023/10/25 00:56:23;;;;;;;8.07;2.80;;;8.90;99.90;;;;;;5042534;28;20570;-64
2023/10/25 00:58:51;;;;;;;4.63;2.50;;;8.90;99.90;;;;;;5028338;28;20061;-64
2023/10/25 01:01:19;;;;;;;8.32;2.30;;;8.80;99.90;;;;;;5045256;28;20061;-64
2023/10/25 01:03:45;;;;;;;5.00;2.15;;;8.90;99.90;;;;;;5024592;28;20111;-65
2023/10/25 01:06:11;;;;;;;5.10;2.28;;;8.80;99.90;;;;;;5047972;28;20047;-65
2023/10/25 01:08:37;;;;;;;3.33;2.28;;;8.90;99.90;;;;;;5044095;28;20040;-65
2023/10/25 01:11:04;;;;;;;5.57;2.35;;;8.90;99.90;;;;;;5038324;28;20045;-65
2023/10/25 01:13:29;;;;;;;6.07;2.28;;;8.80;99.90;;;;;;5049327;28;20061;-66
2023/10/25 01:15:55;;;;;;;6.32;2.70;;;8.90;99.90;;;;;;5030635;28;20094;-65
2023/10/25 01:18:21;;;;;;;2.72;2.20;;;8.90;99.90;;;;;;5049394;28;20052;-65
2023/10/25 01:20:47;;;;;;;4.40;1.88;;;8.80;99.90;;;;;;5038528;28;20056;-65
2023/10/25 01:23:13;;;;;;;4.13;2.47;;;8.90;99.90;;;;;;5047364;28;20396;-65
2023/10/25 01:25:40;;;;;;;5.30;2.50;;;8.90;99.90;;;;;;5000635;28;20548;-65
2023/10/25 01:28:06;;;;;;;5.45;2.30;;;8.80;99.90;;;;;;5047195;28;20045;-65
2023/10/25 01:30:32;;;;;;;7.05;2.00;;;8.80;99.90;;;;;;5019558;28;20045;-65
2023/10/25 01:32:58;;;;;;;3.97;2.20;;;8.70;99.90;;;;;;5033802;28;20041;-65
2023/10/25 01:35:25;;;;;;;5.40;2.20;;;8.70;99.90;;;;;;5035549;28;20041;-65
2023/10/25 01:37:52;;;;;;;7.05;2.15;;;8.70;99.90;;;;;;5039816;28;20439;-65
2023/10/25 01:40:18;;;;;;;7.95;2.35;;;8.70;99.90;;;;;;5044147;28;20509;-65
2023/10/25 01:42:45;;;;;;;7.10;2.50;;;8.70;99.90;;;;;;5046312;28;20060;-65
2023/10/25 01:45:11;;;;;;;9.73;2.33;;;8.60;99.90;;;;;;5019259;28;20474;-65
2023/10/25 01:47:38;;;;;;;2.33;1.80;;;8.60;99.90;;;;;;5036069;28;20263;-65
2023/10/25 01:50:05;;;;;;;10.63;2.13;;;8.50;99.90;;;;;;5028376;28;20052;-65
2023/10/25 01:52:31;;;;;;;8.73;2.55;;;8.50;99.90;;;;;;5011774;28;20045;-65
2023/10/25 01:54:57;;;;;;;8.50;2.25;;;8.50;99.90;;;;;;5027765;28;20352;-65
2023/10/25 01:57:22;;;;;;;5.82;2.05;;;8.50;99.90;;;;;;5029634;28;20124;-65
2023/10/25 01:59:48;;;;;;;2.83;1.85;;;8.50;99.90;;;;;;5027656;28;20037;-65
2023/10/25 02:02:14;;;;;;;8.23;2.00;;;8.40;99.90;;;;;;5000312;28;20054;-65
2023/10/25 02:04:40;;;;;;;2.08;1.90;;;8.50;99.90;;;;;;4998516;28;20042;-65
2023/10/25 02:07:05;;;;;;;5.07;2.20;;;8.50;99.90;;;;;;5030427;28;20045;-65
2023/10/25 02:09:32;;;;;;;2.53;1.95;;;8.40;99.90;;;;;;5010155;28;20053;-65
2023/10/25 02:11:58;;;;;;;3.17;2.20;;;8.40;99.90;;;;;;5039848;28;20040;-65
2023/10/25 02:14:24;;;;;;;8.02;2.35;;;8.40;99.90;;;;;;5038431;28;20041;-65
2023/10/25 02:16:50;;;;;;;7.80;2.17;;;8.50;99.90;;;;;;5047264;28;20049;-65
2023/10/25 02:19:17;;;;;;;5.55;2.10;;;8.30;99.90;;;;;;5030422;28;20045;-65
2023/10/25 02:21:42;;;;;;;12.77;2.40;;;8.40;99.90;;;;;;5047366;28;20036;-65
2023/10/25 02:24:14;;;;;;;4.63;2.03;;;8.40;99.90;;;;;;5047620;28;20045;-64
2023/10/25 02:26:40;;;;;;;8.98;2.53;;;8.40;99.90;;;;;;5030480;28;20053;-65
2023/10/25 02:29:06;;;;;;;4.57;2.20;;;8.40;99.90;;;;;;5047282;28;20037;-65
2023/10/25 02:31:36;;;;;;;19.73;2.60;;;8.40;99.90;;;;;;5046759;28;20041;-64
2023/10/25 02:34:01;;;;;;;7.30;2.30;;;8.40;99.90;;;;;;5035133;28;20757;-64
2023/10/25 02:36:29;;;;;;;6.30;2.03;;;8.40;99.90;;;;;;5028163;28;20049;-65
2023/10/25 02:38:54;;;;;;;4.78;2.10;;;8.30;99.90;;;;;;5047499;28;20045;-64
2023/10/25 02:41:20;;;;;;;5.07;2.47;;;8.30;99.90;;;;;;5013915;28;20063;-64
2023/10/25 02:43:46;;;;;;;4.18;2.42;;;8.30;99.90;;;;;;5047628;28;20116;-64
2023/10/25 02:46:12;;;;;;;4.03;2.35;;;8.30;99.90;;;;;;5043416;28;20059;-65
2023/10/25 02:48:38;;;;;;;9.02;2.15;;;8.30;99.90;;;;;;5067383;28;20059;-64
2023/10/25 02:51:05;;;;;;;3.65;1.98;;;8.30;99.90;;;;;;5048530;28;20083;-65
2023/10/25 02:53:31;;;;;;;3.83;2.00;;;8.30;99.90;;;;;;5067580;28;20037;-64
2023/10/25 02:56:06;;;;;;;5.07;2.15;;;8.20;99.90;;;;;;5031436;28;20040;-65
2023/10/25 02:58:32;;;;;;;5.70;2.15;;;8.20;99.90;;;;;;5067094;28;20036;-65
2023/10/25 03:00:58;;;;;;;3.50;2.20;;;8.20;99.90;;;;;;5065599;28;20426;-65
2023/10/25 03:03:28;;;;;;;5.15;2.50;;;8.30;99.90;;;;;;5062257;28;20475;-65
2023/10/25 03:05:55;;;;;;;4.78;2.25;;;8.20;99.90;;;;;;5066097;28;20127;-65
2023/10/25 03:08:21;;;;;;;3.47;1.95;;;8.30;99.90;;;;;;5053145;28;20091;-65
2023/10/25 03:10:46;;;;;;;2.33;2.17;;;8.30;99.90;;;;;;5035140;28;20037;-65
2023/10/25 03:13:12;;;;;;;6.47;2.63;;;8.10;99.90;;;;;;5048548;28;20048;-65
2023/10/25 03:15:38;;;;;;;6.13;2.60;;;8.10;99.90;;;;;;5064756;28;20037;-65
2023/10/25 03:18:04;;;;;;;12.60;2.65;;;8.20;99.90;;;;;;5048363;28;20052;-65
2023/10/25 03:20:30;;;;;;;4.80;2.47;;;8.20;99.90;;;;;;5048964;28;20131;-65
2023/10/25 03:22:56;;;;;;;6.35;2.53;;;8.20;99.90;;;;;;5049108;28;20119;-65
2023/10/25 03:25:22;;;;;;;15.25;3.08;;;8.10;99.90;;;;;;5047844;28;20044;-65
2023/10/25 03:27:48;;;;;;;8.60;2.63;;;8.20;99.90;;;;;;5051509;28;20041;-65
2023/10/25 03:30:13;;;;;;;8.57;3.13;;;8.10;99.90;;;;;;5047146;28;20075;-66
2023/10/25 03:32:39;;;;;;;6.43;3.10;;;8.10;99.90;;;;;;5064159;28;20083;-65
2023/10/25 03:35:06;;;;;;;14.45;2.83;;;8.00;99.90;;;;;;5052578;28;20040;-65
2023/10/25 03:37:35;;;;;;;3.53;2.70;;;8.00;99.90;;;;;;5067387;28;20032;-65
2023/10/25 03:40:01;;;;;;;8.50;3.25;;;8.00;99.90;;;;;;5066414;28;20115;-65
2023/10/25 03:42:27;;;;;;;8.02;3.10;;;8.00;99.90;;;;;;5031565;28;20530;-65
2023/10/25 03:44:52;;;;;;;6.97;3.10;;;8.00;99.90;;;;;;5061341;28;20060;-65
2023/10/25 03:47:18;;;;;;;3.97;3.00;;;7.90;99.90;;;;;;5027844;28;20092;-65
2023/10/25 03:49:44;;;;;;;4.45;3.03;;;8.00;99.90;;;;;;5046680;28;20089;-65
2023/10/25 03:52:10;;;;;;;4.32;3.15;;;8.00;99.90;;;;;;5026943;28;20087;-64
2023/10/25 03:54:38;;;;;;;5.50;3.05;;;8.00;99.90;;;;;;5028773;28;20048;-64
2023/10/25 03:57:04;;;;;;;8.73;3.30;;;8.00;99.90;;;;;;5046664;28;20119;-64
2023/10/25 03:59:31;;;;;;;5.65;3.35;;;8.00;99.90;;;;;;5028093;28;20064;-64
2023/10/25 04:01:56;;;;;;;4.15;3.00;;;7.90;99.90;;;;;;5044460;28;20045;-64
2023/10/25 04:04:22;;;;;;;8.52;3.25;;;7.90;99.90;;;;;;5046152;28;20072;-64
2023/10/25 04:06:48;;;;;;;5.47;3.30;;;7.90;99.90;;;;;;5045082;28;20084;-64
2023/10/25 04:09:14;;;;;;;5.65;3.22;;;7.90;99.90;;;;;;5029674;28;20058;-64
2023/10/25 04:11:39;;;;;;;6.40;2.83;;;7.80;99.90;;;;;;5034558;28;20049;-64
2023/10/25 04:14:05;;;;;;;16.38;4.00;;;7.90;99.90;;;;;;5041399;28;20056;-64
2023/10/25 04:16:31;;;;;;;5.97;3.53;;;7.90;99.90;;;;;;5046451;28;20087;-64
2023/10/25 04:18:56;;;;;;;7.35;3.53;;;7.80;99.90;;;;;;5028378;28;20077;-64
2023/10/25 04:21:22;;;;;;;8.15;3.65;;;7.90;99.90;;;;;;5027604;28;20045;-64
2023/10/25 04:23:48;;;;;;;5.68;3.22;;;7.90;99.90;;;;;;5043893;28;20123;-64
2023/10/25 04:26:14;;;;;;;5.45;3.70;;;7.80;99.90;;;;;;5027610;28;20128;-64
2023/10/25 04:28:42;;;;;;;9.93;3.08;;;7.80;99.90;;;;;;5046581;28;20407;-64
2023/10/25 04:31:09;;;;;;;6.72;3.83;;;7.80;99.90;;;;;;5040733;28;20053;-64
2023/10/25 04:33:35;;;;;;;5.13;2.67;;;7.80;99.90;;;;;;5017292;28;20057;-64
2023/10/25 04:36:01;;;;;;;4.43;2.85;;;7.80;99.90;;;;;;4999410;28;20103;-64
2023/10/25 04:38:26;;;;;;;10.38;3.75;;;7.90;99.90;;;;;;5039253;28;20041;-65
2023/10/25 04:40:53;;;;;;;6.03;3.20;;;7.80;99.90;;;;;;5050192;28;20055;-65
2023/10/25 04:43:18;;;;;;;9.98;3.20;;;7.90;99.90;;;;;;5031220;28;20475;-64
2023/10/25 04:45:45;;;;;;;9.68;3.10;;;7.90;99.90;;;;;;5031765;28;20068;-64
2023/10/25 04:48:11;;;;;;;7.75;2.80;;;7.80;99.90;;;;;;5062984;28;20480;-64
2023/10/25 04:50:37;;;;;;;4.22;2.47;;;7.80;99.90;;;;;;5058536;28;20040;-64
2023/10/25 04:53:04;;;;;;;6.90;2.88;;;7.80;99.90;;;;;;5069234;28;20044;-64
2023/10/25 04:55:37;;;;;;;2.83;2.50;;;7.80;99.90;;;;;;5068589;28;20053;-64
2023/10/25 04:58:04;;;;;;;5.47;2.75;;;7.70;99.90;;;;;;5045098;28;20056;-64
2023/10/25 05:00:31;;;;;;;4.93;2.92;;;7.70;99.90;;;;;;5068035;28;20090;-64
2023/10/25 05:02:57;;;;;;;8.13;2.80;;;7.70;99.90;;;;;;5061077;28;20068;-64
2023/10/25 05:05:23;;;;;;;4.57;2.50;;;7.70;99.90;;;;;;5053060;28;20044;-65
2023/10/25 05:07:50;;;;;;;6.40;2.75;;;7.70;99.90;;;;;;5028720;28;20099;-64
2023/10/25 05:10:16;;;;;;;4.50;2.28;;;7.70;99.90;;;;;;5050315;28;20194;-64
2023/10/25 05:12:47;;;;;;;3.92;2.42;;;7.70;99.90;;;;;;5051168;28;20538;-64
2023/10/25 05:15:14;;;;;;;5.07;2.63;;;7.70;99.90;;;;;;5050607;28;20449;-65
2023/10/25 05:17:41;;;;;;;8.57;2.72;;;7.60;99.90;;;;;;5053739;28;20052;-64
2023/10/25 05:20:08;;;;;;;5.40;2.30;;;7.60;99.90;;;;;;5049537;28;20049;-64
2023/10/25 05:22:36;;;;;;;6.80;2.78;;;7.60;99.90;;;;;;5047973;28;20044;-64
2023/10/25 05:25:03;;;;;;;3.92;2.40;;;7.50;99.90;;;;;;5027942;28;20045;-64
2023/10/25 05:27:29;;;;;;;7.10;2.67;;;7.60;99.90;;;;;;5049043;28;20127;-64
2023/10/25 05:29:59;;;;;;;8.40;2.55;;;7.50;99.90;;;;;;5034119;28;20054;-64
2023/10/25 05:32:28;;;;;;;3.63;2.75;;;7.60;99.90;;;;;;5054566;28;20076;-65
2023/10/25 05:34:55;;;;;;;2.90;2.63;;;7.50;99.90;;;;;;5047698;28;20484;-64
2023/10/25 05:37:21;;;;;;;5.05;2.50;;;7.60;99.90;;;;;;5057721;28;20070;-65
2023/10/25 05:39:47;;;;;;;8.63;2.13;;;7.50;99.90;;;;;;5041237;28;20502;-65
2023/10/25 05:42:18;;;;;;;5.97;2.42;;;7.50;99.90;;;;;;5056947;28;20119;-64
2023/10/25 05:44:44;;;;;;;3.47;2.53;;;7.50;99.90;;;;;;5030608;28;20390;-64
2023/10/25 05:47:09;;;;;;;3.08;2.47;;;7.60;99.90;;;;;;5020214;28;20249;-64
2023/10/25 05:49:35;;;;;;;8.18;3.20;;;7.50;99.90;;;;;;5027696;28;20053;-64
2023/10/25 05:52:01;;;;;;;2.83;2.45;;;7.40;99.90;;;;;;5009225;28;20128;-64
2023/10/25 05:54:27;;;;;;;4.15;2.53;;;7.50;99.90;;;;;;5011514;28;20499;-64
2023/10/25 05:56:54;;;;;;;3.65;2.47;;;7.50;99.90;;;;;;5027081;28;20044;-64
2023/10/25 05:59:20;;;;;;;5.57;2.50;;;7.40;99.90;;;;;;5011930;28;20053;-64
2023/10/25 06:01:49;;;;;;;5.35;2.30;;;7.40;99.90;;;;;;5032115;28;20051;-64
2023/10/25 06:04:15;;;;;;;10.20;2.47;;;7.30;99.90;;;;;;5030663;28;20055;-64
2023/10/25 06:06:44;;;;;;;6.65;2.55;;;7.30;99.90;;;;;;5003149;28;20038;-64
2023/10/25 06:09:11;;;;;;;6.68;2.42;;;7.30;99.90;;;;;;5033500;28;20437;-64
2023/10/25 06:11:38;;;;;;;6.40;2.55;;;7.20;99.90;;;;;;5011030;28;20049;-64
2023/10/25 06:14:05;;;;;;;3.75;2.50;;;7.20;99.90;;;;;;5001354;28;20042;-64
2023/10/25 06:16:31;;;;;;;5.57;2.85;;;7.20;99.90;;;;;;5028798;28;20051;-64
2023/10/25 06:18:57;;;;;;;3.83;2.72;;;7.20;99.90;;;;;;5028214;28;20049;-64
2023/10/25 06:21:23;;;;;;;12.38;3.05;;;7.30;99.90;;;;;;5028248;28;20518;-64
2023/10/25 06:23:51;;;;;;;9.77;3.10;;;7.40;99.90;;;;;;4994982;28;20034;-64
2023/10/25 06:26:17;;;;;;;7.35;2.30;;;7.40;99.90;;;;;;5029495;28;20120;-64
2023/10/25 06:28:42;;;;;;;8.38;2.70;;;7.40;99.90;;;;;;5030886;28;20145;-64
2023/10/25 06:31:14;;;;;;;8.32;3.15;;;7.30;99.90;;;;;;5034881;28;20550;-64
2023/10/25 06:33:41;;;;;;;4.65;2.83;;;7.30;99.90;;;;;;5001990;28;20099;-65
2023/10/25 06:36:08;;;;;;;4.38;2.45;;;7.30;99.90;;;;;;5013615;28;20491;-65
2023/10/25 06:38:34;;;;;;;6.00;2.65;;;7.30;99.90;;;;;;5006991;28;20546;-65
2023/10/25 06:41:03;;;;;;;5.47;2.80;;;7.30;99.90;;;;;;4988097;28;20054;-65
2023/10/25 06:43:30;;;;;;;4.97;2.42;;;7.30;99.90;;;;;;5030425;28;20522;-64
2023/10/25 06:45:58;;;;;;;7.03;2.40;;;7.30;99.90;;;;;;5022308;28;20049;-64
2023/10/25 06:48:24;;;;;;;9.57;2.85;;;7.30;99.90;;;;;;5022315;28;20041;-64
2023/10/25 06:50:53;;;;;;;3.55;1.95;;;7.30;99.90;;;;;;5029961;28;20068;-64
2023/10/25 06:53:20;;;;;;;8.07;2.65;;;7.30;99.90;;;;;;5010772;28;20448;-64
2023/10/25 06:55:46;;;;;;;5.60;2.53;;;7.30;99.90;;;;;;5029424;28;20080;-64
2023/10/25 06:58:12;;;;;;;5.82;2.95;;;7.30;99.90;;;;;;5024504;28;20076;-64
2023/10/25 07:00:39;;;;;;;6.47;2.55;;;7.30;99.90;;;;;;5026160;28;20092;-65
2023/10/25 07:03:06;;;;;;;7.32;2.70;;;7.30;99.90;;;;;;4987386;28;20115;-65
2023/10/25 07:05:32;;;;;;;6.20;2.70;;;7.40;99.90;;;;;;4991001;28;20037;-65
2023/10/25 07:07:59;;;;;;;9.82;2.72;;;7.50;99.90;;;;;;5042658;28;20087;-65
2023/10/25 07:10:25;;;;;;;6.80;2.63;;;7.50;99.90;;;;;;5029285;28;20084;-65
2023/10/25 07:12:51;;;;;;;8.82;3.08;;;7.60;99.90;;;;;;5011585;28;20049;-65
2023/10/25 07:15:18;;;;;;;6.00;2.65;;;7.60;99.90;;;;;;5027089;28;20686;-65
2023/10/25 07:17:45;;;;;;;6.70;2.80;;;7.70;99.90;;;;;;5033695;28;20071;-65
2023/10/25 07:20:11;;;;;;;4.57;2.42;;;7.70;99.90;;;;;;5016423;28;20041;-64
2023/10/25 07:22:39;;;;;;;7.85;3.00;;;7.80;99.90;;;;;;5025925;28;20051;-64
2023/10/25 07:25:08;;;;;;;6.90;2.30;;;7.90;99.90;;;;;;5011064;28;20059;-64
2023/10/25 07:27:36;;;;;;;4.38;2.42;;;8.00;99.90;;;;;;5030463;28;20049;-64
2023/10/25 07:30:04;;;;;;;6.90;2.53;;;8.10;99.90;;;;;;5009715;28;20049;-64
2023/10/25 07:32:31;;;;;;;2.30;2.20;;;8.30;99.90;;;;;;5037979;28;20067;-65
2023/10/25 07:34:57;;;;;;;4.55;2.65;;;8.40;99.90;;;;;;5021894;28;20487;-65
2023/10/25 07:37:23;;;;;;;6.43;2.55;;;8.50;99.90;;;;;;5026234;28;20049;-64
2023/10/25 07:39:48;;;;;;;4.65;2.45;;;8.60;99.90;;;;;;5025684;28;20162;-65
2023/10/25 07:42:14;;;;;;;4.63;2.53;;;8.60;99.90;;;;;;5010496;28;20092;-65
2023/10/25 07:44:40;;;;;;;4.13;2.72;;;8.70;99.90;;;;;;5017703;28;20141;-65
2023/10/25 07:47:05;;;;;;;8.90;3.13;;;8.70;99.90;;;;;;5007992;28;20048;-65
2023/10/25 07:49:35;;;;;;;4.05;2.55;;;8.70;99.90;;;;;;5028613;28;20049;-65
2023/10/25 07:52:01;;;;;;;6.53;2.15;;;8.60;99.90;;;;;;5035149;28;20080;-64
2023/10/25 07:54:27;;;;;;;8.88;2.92;;;8.80;99.90;;;;;;5032793;28;20048;-65
2023/10/25 07:56:52;;;;;;;10.65;2.95;;;8.80;99.90;;;;;;5025441;28;20037;-65
2023/10/25 07:59:18;;;;;;;3.28;2.88;;;8.80;99.90;;;;;;5003344;28;20045;-65
2023/10/25 08:01:44;;;;;;;11.93;3.08;;;8.80;99.90;;;;;;5024753;28;20124;-65
2023/10/25 08:04:10;;;;;;;11.07;4.10;;;8.90;99.90;;;;;;5028301;28;20049;-64
2023/10/25 08:06:36;;;;;;;8.77;3.50;;;9.10;99.90;;;;;;5043504;28;20058;-64
2023/10/25 08:09:02;;;;;;;5.82;3.47;;;9.20;99.90;;;;;;5032727;28;20479;-64
2023/10/25 08:11:28;;;;;;;10.07;3.47;;;9.30;99.90;;;;;;5043534;28;20438;-64
2023/10/25 08:13:54;;;;;;;7.53;3.58;;;9.40;99.90;;;;;;5046558;28;20090;-65
2023/10/25 08:16:20;;;;;;;4.97;3.35;;;9.40;99.90;;;;;;5030265;28;20040;-64
2023/10/25 08:18:45;;;;;;;10.43;4.32;;;9.50;99.90;;;;;;5048460;28;20103;-65
2023/10/25 08:21:13;;;;;;;13.63;4.05;;;9.50;99.90;;;;;;5042752;28;20041;-65
2023/10/25 08:23:39;;;;;;;10.27;4.45;;;9.50;99.90;;;;;;5027520;28;20127;-65
2023/10/25 08:26:05;;;;;;;11.15;4.40;;;9.50;99.90;;;;;;5046621;28;20048;-65
2023/10/25 08:28:31;;;;;;;8.77;4.63;;;9.50;99.90;;;;;;5046053;28;20433;-64
2023/10/25 08:30:56;;;;;;;7.43;4.40;;;9.50;99.90;;;;;;5011446;28;20116;-65
2023/10/25 08:33:22;;;;;;;10.20;4.13;;;9.40;99.90;;;;;;5029699;28;20029;-65
2023/10/25 08:35:48;;;;;;;6.63;3.35;;;9.30;99.90;;;;;;5049271;28;20043;-65
2023/10/25 08:38:14;;;;;;;10.13;3.38;;;9.30;99.90;;;;;;5001553;28;20046;-64
2023/10/25 08:40:41;;;;;;;9.02;3.70;;;9.30;99.90;;;;;;5013296;28;20052;-65
2023/10/25 08:43:08;;;;;;;5.38;3.13;;;9.20;99.90;;;;;;5015566;28;20053;-65
2023/10/25 08:45:35;;;;;;;8.70;3.38;;;9.20;99.90;;;;;;5010330;28;20060;-65
2023/10/25 08:48:04;;;;;;;7.72;3.28;;;9.30;99.90;;;;;;5001093;28;20042;-65
2023/10/25 08:50:31;;;;;;;9.00;3.90;;;9.20;99.90;;;;;;5009748;28;20851;-65
2023/10/25 08:52:57;;;;;;;6.15;3.63;;;9.30;99.90;;;;;;5018280;28;20399;-64
2023/10/25 08:55:23;;;;;;;5.72;3.50;;;9.30;99.90;;;;;;5010578;28;20045;-64
2023/10/25 08:57:54;;;;;;;12.57;4.13;;;9.40;99.90;;;;;;5027951;28;20045;-65
2023/10/25 09:00:20;;;;;;;9.93;4.18;;;9.40;99.90;;;;;;5035248;28;20126;-64
2023/10/25 09:02:46;;;;;;;12.98;5.13;;;9.40;99.90;;;;;;5036422;28;20068;-64
2023/10/25 09:05:12;;;;;;;14.25;5.95;;;9.50;99.90;;;;;;5039986;28;20123;-64
2023/10/25 09:07:38;;;;;;;20.95;6.70;;;9.60;99.90;;;;;;5039452;28;20507;-65
2023/10/25 09:10:19;;;;;;;11.10;6.85;;;9.60;99.90;;;;;;5038053;28;20099;-64
2023/10/25 09:12:46;;;;;;;10.75;6.22;;;9.70;99.90;;;;;;5031136;28;20054;-64
2023/10/25 09:15:12;;;;;;;10.23;4.93;;;9.90;99.90;;;;;;5009456;28;20057;-65
2023/10/25 09:17:38;;;;;;;7.70;3.70;;;10.00;99.90;;;;;;4982662;28;20134;-64
2023/10/25 09:20:08;;;;;;;7.20;3.78;;;10.00;99.90;;;;;;5020065;28;20190;-64
2023/10/25 09:22:34;;;;;;;8.95;4.25;;;10.10;99.90;;;;;;5031594;28;20055;-64
2023/10/25 09:25:02;;;;;;;7.68;3.85;;;10.10;99.90;;;;;;5027346;28;20037;-63
2023/10/25 09:27:28;;;;;;;12.05;4.65;;;10.10;99.90;;;;;;5008537;28;20041;-64
2023/10/25 09:30:10;;;;;;;11.82;4.18;;;10.10;99.90;;;;;;5029818;28;20522;-64
2023/10/25 09:32:36;;;;;;;6.20;3.97;;;10.10;99.90;;;;;;5027781;28;20052;-64
2023/10/25 09:35:03;;;;;;;8.90;3.45;;;10.20;99.90;;;;;;5007203;28;20052;-64
2023/10/25 09:37:29;;;;;;;11.25;3.72;;;10.20;99.90;;;;;;5020691;28;20050;-64
2023/10/25 09:39:54;;;;;;;12.32;4.40;;;10.20;99.90;;;;;;5034255;28;20052;-64
2023/10/25 09:42:25;;;;;;;13.75;4.38;;;10.20;99.90;;;;;;5001072;28;20394;-63
2023/10/25 09:44:59;;;;;;;12.38;4.13;;;10.30;99.90;;;;;;5014449;28;20048;-64
2023/10/25 09:47:29;;;;;;;8.70;3.63;;;10.40;99.90;;;;;;5034115;28;20053;-64
2023/10/25 09:50:04;;;;;;;12.13;4.10;;;10.40;99.90;;;;;;5002970;28;20108;-64
2023/10/25 09:52:35;;;;;;;7.32;4.20;;;10.30;99.90;;;;;;5035524;28;20047;-64
2023/10/25 09:55:18;;;;;;;10.68;4.13;;;10.30;99.90;;;;;;5027790;28;20052;-64
2023/10/25 09:57:45;;;;;;;13.95;4.60;;;10.40;99.90;;;;;;5031285;28;20055;-64
2023/10/25 10:00:12;;;;;;;7.47;4.47;;;10.40;99.90;;;;;;5044772;28;20048;-64
2023/10/25 10:02:58;;;;;;;12.88;5.15;;;10.40;99.90;;;;;;5026008;28;20163;-64
2023/10/25 10:05:31;;;;;;;7.97;4.10;;;10.50;99.90;;;;;;5025964;28;20670;-64
2023/10/25 10:08:21;;;;;;;9.15;4.40;;;10.50;99.90;;;;;;5009716;28;20100;-64
2023/10/25 10:10:58;;;;;;;13.18;4.88;;;10.60;99.90;;;;;;5030077;28;20045;-63
2023/10/25 10:13:26;;;;;;;10.25;4.57;;;10.70;99.90;;;;;;5029492;28;20057;-63
2023/10/25 10:16:11;;;;;;;7.38;4.32;;;10.80;99.90;;;;;;5046653;28;20477;-64
2023/10/25 10:18:47;;;;;;;10.57;5.20;;;11.00;99.90;;;;;;5034300;28;20495;-64
2023/10/25 10:21:16;;;;;;;8.80;5.03;;;11.10;99.90;;;;;;5009584;28;20144;-63
2023/10/25 10:23:51;;;;;;;7.85;4.43;;;11.20;99.90;;;;;;5036526;28;20158;-64
2023/10/25 10:26:39;;;;;;;8.25;4.68;;;11.30;99.90;;;;;;5026691;28;20094;-64
2023/10/25 10:29:33;;;;;;;5.50;3.85;;;11.40;99.90;;;;;;5015403;28;20052;-63
2023/10/25 10:32:04;;;;;;;10.05;4.65;;;11.60;99.90;;;;;;5030533;28;20496;-63
2023/10/25 10:34:43;;;;;;;9.02;4.30;;;11.70;99.90;;;;;;5036771;28;20494;-63
2023/10/25 10:37:14;;;;;;;8.25;4.40;;;11.90;99.90;;;;;;5037390;28;20057;-64
2023/10/25 10:39:57;;;;;;;6.78;3.97;;;12.00;99.90;;;;;;5037267;28;20103;-64
2023/10/25 10:42:30;;;;;;;9.13;4.05;;;12.20;99.90;;;;;;5020485;28;20045;-64
2023/10/25 10:45:09;;;;;;;10.65;4.20;;;12.30;99.90;;;;;;5038274;28;20045;-64
2023/10/25 10:47:53;;;;;;;9.13;4.15;;;12.40;99.90;;;;;;5035046;28;20068;-63
2023/10/25 10:50:24;;;;;;;10.02;4.18;;;12.60;99.90;;;;;;5025859;28;20052;-63
2023/10/25 10:52:51;;;;;;;5.72;3.58;;;12.90;99.90;;;;;;5009542;28;20120;-63
2023/10/25 10:55:26;;;;;;;7.00;3.45;;;13.00;99.90;;;;;;5002517;28;20143;-63
2023/10/25 10:57:52;;;;;;;4.80;3.70;;;13.00;99.90;;;;;;5034702;28;20040;-63
2023/10/25 11:00:18;;;;;;;8.50;3.67;;;13.00;99.90;;;;;;5009138;28;20041;-63
2023/10/25 11:02:48;;;;;;;7.93;3.65;;;13.00;99.90;;;;;;5025155;28;20033;-63
2023/10/25 11:05:15;;;;;;;;;;;13.00;99.90;;;;;;5026308;28;20241;-63
2023/10/25 11:07:41;;;;;;;7.65;3.80;;;13.10;99.90;;;;;;5007143;28;19925;-63
2023/10/25 11:10:10;;;;;;;6.75;3.72;;;13.30;99.90;;;;;;5026937;28;20053;-63
2023/10/25 11:12:37;;;;;;;5.95;4.00;;;13.40;99.90;;;;;;4994211;28;20484;-63
2023/10/25 11:15:04;;;;;;;4.55;3.30;;;13.40;99.90;;;;;;5025695;28;20091;-63
2023/10/25 11:17:34;;;;;;;4.68;2.97;;;13.40;99.90;;;;;;5006829;28;20416;-63
2023/10/25 11:20:00;;;;;;;7.28;3.72;;;13.50;99.90;;;;;;5026616;28;20046;-64
2023/10/25 11:22:26;;;;;;;13.25;2.95;;;13.40;99.90;;;;;;5024419;28;20049;-63
2023/10/25 11:24:53;;;;;;;5.47;3.08;;;13.40;99.90;;;;;;5005716;28;20145;-63
2023/10/25 11:27:19;;;;;;;5.47;2.97;;;13.40;99.90;;;;;;4994393;28;20069;-63
2023/10/25 11:29:48;;;;;;;13.07;3.22;;;13.40;99.90;;;;;;5025915;28;20056;-63
2023/10/25 11:32:15;;;;;;;10.95;3.08;;;13.40;99.90;;;;;;5004938;28;20387;-63
2023/10/25 11:34:47;;;;;;;4.38;2.13;;;13.40;99.90;;;;;;5025950;28;20038;-63
2023/10/25 11:37:12;;;;;;;8.07;2.53;;;13.40;99.90;;;;;;5008114;28;20045;-63
2023/10/25 11:39:58;;;;;;;6.00;2.40;;;13.40;99.90;;;;;;5007730;28;20041;-63
2023/10/25 11:42:31;;;;;;;8.40;2.30;;;13.40;99.90;;;;;;5021583;28;20517;-63
2023/10/25 11:44:59;;;;;;;9.75;2.60;;;13.40;99.90;;;;;;5027054;28;20044;-63
2023/10/25 11:47:27;;;;;;;3.90;2.40;;;13.40;99.90;;;;;;5005602;28;20060;-63
2023/10/25 11:49:55;;;;;;;10.68;2.58;;;13.40;99.90;;;;;;5025091;28;20125;-63
2023/10/25 11:52:22;;;;;;;3.75;2.10;;;13.40;99.90;;;;;;5009791;28;20073;-63
2023/10/25 11:54:55;;;;;;;5.00;1.83;;;13.40;99.90;;;;;;5025026;28;20476;-63
2023/10/25 11:57:24;;;;;;;3.35;1.63;;;13.40;99.90;;;;;;5026592;28;20053;-63
2023/10/25 11:59:50;;;;;;;2.58;1.85;;;13.30;99.90;;;;;;5019139;28;20483;-63
2023/10/25 12:02:20;;;;;;;5.25;2.20;;;13.30;99.90;;;;;;5027786;28;20501;-63
2023/10/25 12:04:47;;;;;;;4.18;2.00;;;13.20;99.90;;;;;;4988148;28;20038;-63
2023/10/25 12:07:12;;;;;;;2.67;1.70;;;13.10;99.90;;;;;;5025424;28;20054;-63
2023/10/25 12:09:39;;;;;;;3.53;2.08;;;13.10;99.90;;;;;;5005168;28;20048;-63
2023/10/25 12:12:06;;;;;;;5.35;2.10;;;13.10;99.90;;;;;;5008251;28;20049;-64
2023/10/25 12:14:31;;;;;;;2.22;2.00;;;13.00;99.90;;;;;;5022233;28;20033;-63
2023/10/25 12:16:58;;;;;;;2.60;1.70;;;13.00;99.90;;;;;;5045398;28;20049;-63
2023/10/25 12:19:24;;;;;;;5.53;2.38;;;13.00;99.90;;;;;;5012368;28;20047;-64
2023/10/25 12:21:54;;;;;;;9.82;2.45;;;13.00;99.90;;;;;;5036114;28;20041;-63
2023/10/25 12:24:22;;;;;;;3.67;2.30;;;13.00;99.90;;;;;;5041201;28;20045;-64
2023/10/25 12:26:47;;;;;;;6.75;2.03;;;13.00;99.90;;;;;;5011809;28;20341;-64
2023/10/25 12:29:13;;;;;;;5.72;2.50;;;13.00;99.90;;;;;;5045317;28;20446;-63
2023/10/25 12:31:39;;;;;;;5.38;2.05;;;13.00;99.90;;;;;;5026302;28;20163;-63
2023/10/25 12:34:05;;;;;;;8.20;2.42;;;13.00;99.90;;;;;;5035747;28;20127;-63
2023/10/25 12:36:30;;;;;;;9.90;2.45;;;13.00;99.90;;;;;;5011977;28;20049;-63
2023/10/25 12:38:56;;;;;;;3.97;1.67;;;13.00;99.90;;;;;;5026314;28;20611;-64
2023/10/25 12:41:22;;;;;;;7.13;2.42;;;13.00;99.90;;;;;;5011951;28;20140;-63
2023/10/25 12:43:48;;;;;;;3.97;1.98;;;13.00;99.90;;;;;;5007126;28;20045;-63
2023/10/25 12:46:14;;;;;;;3.90;1.70;;;13.00;99.90;;;;;;5023428;28;20045;-63
2023/10/25 12:48:40;;;;;;;1.90;1.63;;;12.90;99.90;;;;;;5026248;28;20404;-63
2023/10/25 12:51:06;;;;;;;6.70;1.80;;;12.90;99.90;;;;;;5019451;28;20045;-63
2023/10/25 12:53:32;;;;;;;6.88;2.00;;;12.90;99.90;;;;;;5027371;28;20037;-63